Time;durP1;ratioP1;P1;durP2;ratioP2;P2;SDS_P1;SDS_P2;PMS_P1;PMS_P2;Temp;Humidity;BMP_temperature;BMP_pressure;BME280_temperature;BME280_humidity;BME280_pressure;Samples;Min_cycle;Max_cycle;Signal;HPM_P1;HPM_P2
2021/05/13 00:00:40;;;;;;;;;;;;;;;21.51;43.39;100116.59;5035675;28;761;-60
2021/05/13 00:03:06;;;;;;;;;;;;;;;21.87;42.87;100114.72;5018006;28;900;-60
2021/05/13 00:05:31;;;;;;;;;;;;;;;21.65;43.40;100112.91;5035965;28;872;-60
2021/05/13 00:07:57;;;;;;;;;;;;;;;21.69;43.22;100119.44;5017992;28;693;-60
2021/05/13 00:10:23;;;;;;;;;;;;;;;21.82;42.80;100126.75;5034641;28;859;-59
2021/05/13 00:12:52;;;;;;;;;;;;;;;21.69;43.01;100113.91;5035488;28;1910;-60
2021/05/13 00:15:19;;;;;;;;;;;;;;;21.52;43.55;100107.22;5037390;28;756;-60
2021/05/13 00:17:44;;;;;;;;;;;;;;;21.53;43.54;100103.31;5038331;28;827;-60
2021/05/13 00:20:11;;;;;;;;;;;;;;;21.47;43.91;100095.47;5039515;28;1060;-60
2021/05/13 00:22:37;;;;;;;;;;;;;;;21.54;43.32;100090.28;5039042;28;761;-60
2021/05/13 00:25:03;;;;;;;;;;;;;;;21.48;43.81;100089.59;5039395;28;780;-60
2021/05/13 00:27:28;;;;;;;;;;;;;;;21.66;43.18;100078.59;5038761;28;1030;-60
2021/05/13 00:29:54;;;;;;;;;;;;;;;21.59;43.45;100081.00;5038693;28;808;-60
2021/05/13 00:32:19;;;;;;;;;;;;;;;21.53;43.63;100088.66;5038945;28;872;-60
2021/05/13 00:34:45;;;;;;;;;;;;;;;21.61;43.41;100078.75;5039296;28;1918;-60
2021/05/13 00:37:10;;;;;;;;;;;;;;;21.46;43.80;100080.00;5037411;28;1222;-60
2021/05/13 00:39:35;;;;;;;;;;;;;;;21.63;43.20;100081.97;5021297;28;832;-60
2021/05/13 00:42:01;;;;;;;;;;;;;;;21.66;43.25;100086.88;5024755;28;964;-60
2021/05/13 00:44:26;;;;;;;;;;;;;;;21.78;43.00;100100.88;5038401;28;815;-60
2021/05/13 00:46:52;;;;;;;;;;;;;;;21.64;43.35;100094.69;5054345;28;779;-61
2021/05/13 00:49:19;;;;;;;;;;;;;;;21.52;43.67;100093.38;5037895;28;844;-60
2021/05/13 00:51:45;;;;;;;;;;;;;;;21.53;43.64;100096.94;5053740;28;784;-60
2021/05/13 00:54:11;;;;;;;;;;;;;;;21.82;43.15;100101.84;5038753;28;1905;-61
2021/05/13 00:56:36;;;;;;;;;;;;;;;21.73;43.10;100089.97;5038314;28;1017;-61
2021/05/13 00:59:08;;;;;;;;;;;;;;;21.67;43.27;100094.88;5038164;28;763;-60
2021/05/13 01:01:54;;;;;;;;;;;;;;;21.63;43.53;100099.41;5053511;28;783;-60
2021/05/13 01:04:19;;;;;;;;;;;;;;;21.66;43.37;100092.44;5037013;28;1651;-60
2021/05/13 01:06:45;;;;;;;;;;;;;;;21.73;43.17;100087.22;5053556;28;831;-60
2021/05/13 01:09:11;;;;;;;;;;;;;;;21.73;43.22;100087.22;5038797;28;745;-60
2021/05/13 01:11:39;;;;;;;;;;;;;;;21.72;43.24;100085.56;5037787;28;943;-60
2021/05/13 01:14:19;;;;;;;;;;;;;;;21.49;43.67;100066.34;5038065;28;1909;-60
2021/05/13 01:16:57;;;;;;;;;;;;;;;21.42;43.92;100063.25;5036516;28;669;-60
2021/05/13 01:19:23;;;;;;;;;;;;;;;21.72;43.22;100074.50;5038242;28;886;-60
2021/05/13 01:21:48;;;;;;;;;;;;;;;21.70;43.41;100074.03;5037493;28;1021;-61
2021/05/13 01:24:14;;;;;;;;;;;;;;;21.49;43.75;100065.50;5038269;28;867;-60
2021/05/13 01:26:46;;;;;;;;;;;;;;;21.37;44.25;100069.72;5036781;28;970;-60
2021/05/13 01:29:12;;;;;;;;;;;;;;;21.61;43.43;100075.97;5037692;28;846;-60
2021/05/13 01:31:37;;;;;;;;;;;;;;;21.48;43.80;100070.25;5053423;28;740;-60
2021/05/13 01:34:04;;;;;;;;;;;;;;;21.59;43.39;100056.09;5037644;28;1910;-61
2021/05/13 01:36:29;;;;;;;;;;;;;;;21.63;43.46;100057.09;5037580;28;1190;-60
2021/05/13 01:38:56;;;;;;;;;;;;;;;21.51;43.67;100052.97;5037922;28;752;-60
2021/05/13 01:41:21;;;;;;;;;;;;;;;21.53;43.83;100056.28;5037173;28;1015;-60
2021/05/13 01:43:47;;;;;;;;;;;;;;;21.56;43.67;100054.00;5037436;28;772;-60
2021/05/13 01:46:12;;;;;;;;;;;;;;;21.55;43.57;100057.94;5036088;28;841;-61
2021/05/13 01:48:38;;;;;;;;;;;;;;;21.63;43.50;100057.09;5036423;28;740;-60
2021/05/13 01:51:03;;;;;;;;;;;;;;;21.74;43.23;100043.75;5037344;28;848;-63
2021/05/13 01:53:29;;;;;;;;;;;;;;;21.63;43.33;100038.56;5036207;28;1999;-64
2021/05/13 01:55:54;;;;;;;;;;;;;;;21.65;43.48;100029.91;5037792;28;736;-60
2021/05/13 01:58:19;;;;;;;;;;;;;;;21.77;43.19;100030.09;5036923;28;1002;-60
2021/05/13 02:00:45;;;;;;;;;;;;;;;21.56;43.84;100026.34;5037530;28;748;-59
2021/05/13 02:03:11;;;;;;;;;;;;;;;21.89;42.89;100023.88;5037120;28;927;-60
2021/05/13 02:05:37;;;;;;;;;;;;;;;21.69;43.22;100020.63;5037018;28;800;-60
2021/05/13 02:08:02;;;;;;;;;;;;;;;21.65;43.60;100027.16;5037371;28;736;-60
2021/05/13 02:10:28;;;;;;;;;;;;;;;21.77;43.25;100032.84;5037584;28;769;-61
2021/05/13 02:12:56;;;;;;;;;;;;;;;21.74;43.15;100033.50;5036435;28;1898;-61
2021/05/13 02:15:21;;;;;;;;;;;;;;;21.67;43.51;100045.06;5019535;28;905;-63
2021/05/13 02:17:47;;;;;;;;;;;;;;;21.83;43.11;100036.25;5037566;28;805;-61
2021/05/13 02:20:13;;;;;;;;;;;;;;;21.65;43.61;100043.75;5035787;28;1174;-62
2021/05/13 02:22:39;;;;;;;;;;;;;;;21.70;43.28;100035.31;5037069;28;792;-62
2021/05/13 02:25:05;;;;;;;;;;;;;;;21.80;43.05;100036.91;5035863;28;912;-61
2021/05/13 02:27:30;;;;;;;;;;;;;;;21.62;43.66;100038.88;5036389;28;959;-61
2021/05/13 02:29:56;;;;;;;;;;;;;;;21.76;43.40;100045.03;5036845;28;772;-61
2021/05/13 02:32:21;;;;;;;;;;;;;;;21.71;43.55;100050.75;5035771;28;1250;-60
2021/05/13 02:34:46;;;;;;;;;;;;;;;21.79;43.13;100058.22;5036491;28;1979;-60
2021/05/13 02:37:12;;;;;;;;;;;;;;;21.50;43.70;100064.38;5036607;28;1191;-60
2021/05/13 02:39:37;;;;;;;;;;;;;;;21.66;43.39;100075.81;5035530;28;809;-60
2021/05/13 02:42:03;;;;;;;;;;;;;;;21.56;43.90;100076.97;5036063;28;963;-60
2021/05/13 02:44:28;;;;;;;;;;;;;;;21.64;43.54;100078.09;5036734;28;844;-61
2021/05/13 02:46:54;;;;;;;;;;;;;;;21.73;43.31;100070.63;5036575;28;870;-60
2021/05/13 02:49:19;;;;;;;;;;;;;;;21.83;43.28;100058.41;5036355;28;823;-60
2021/05/13 02:51:45;;;;;;;;;;;;;;;21.60;43.71;100049.44;5036678;28;792;-61
2021/05/13 02:54:10;;;;;;;;;;;;;;;21.75;43.27;100039.84;5036359;28;1914;-59
2021/05/13 02:56:35;;;;;;;;;;;;;;;21.72;43.56;100046.03;5036056;28;1025;-61
2021/05/13 02:59:01;;;;;;;;;;;;;;;21.47;43.90;100049.25;5036335;28;824;-55
2021/05/13 03:01:29;;;;;;;;;;;;;;;21.49;43.88;100046.97;5036246;28;823;-59
2021/05/13 03:03:55;;;;;;;;;;;;;;;21.72;43.29;100038.53;5036890;28;807;-64
2021/05/13 03:06:21;;;;;;;;;;;;;;;21.64;43.62;100036.59;5036160;28;795;-58
2021/05/13 03:08:49;;;;;;;;;;;;;;;21.56;43.70;100026.34;5035290;28;816;-61
2021/05/13 03:11:15;;;;;;;;;;;;;;;21.49;44.15;100033.16;5035953;28;954;-58
2021/05/13 03:13:40;;;;;;;;;;;;;;;21.52;43.85;100038.06;5035853;28;1910;-61
2021/05/13 03:16:06;;;;;;;;;;;;;;;21.52;44.01;100038.06;5036598;28;803;-62
2021/05/13 03:18:33;;;;;;;;;;;;;;;21.52;44.01;100040.03;5036435;28;783;-62
2021/05/13 03:21:10;;;;;;;;;;;;;;;21.62;43.87;100041.66;5018358;28;1237;-61
2021/05/13 03:23:51;;;;;;;;;;;;;;;21.45;44.00;100051.53;5036377;28;780;-62
2021/05/13 03:26:24;;;;;;;;;;;;;;;21.48;44.02;100047.31;5035541;28;1075;-59
2021/05/13 03:28:50;;;;;;;;;;;;;;;21.59;44.03;100048.63;5036547;28;764;-61
2021/05/13 03:31:15;;;;;;;;;;;;;;;21.67;43.66;100045.06;5036532;28;776;-61
2021/05/13 03:33:41;;;;;;;;;;;;;;;21.58;43.85;100047.00;5036181;28;1909;-61
2021/05/13 03:36:06;;;;;;;;;;;;;;;21.67;43.66;100049.75;5036196;28;1163;-61
2021/05/13 03:38:32;;;;;;;;;;;;;;;21.52;44.07;100043.59;5036321;28;839;-62
2021/05/13 03:40:57;;;;;;;;;;;;;;;21.68;43.76;100043.09;5036358;28;1006;-63
2021/05/13 03:43:23;;;;;;;;;;;;;;;21.66;43.52;100048.16;5035306;28;1010;-63
2021/05/13 03:45:48;;;;;;;;;;;;;;;21.71;43.86;100042.44;5036136;28;819;-62
2021/05/13 03:48:14;;;;;;;;;;;;;;;21.72;43.44;100041.31;5036418;28;752;-58
2021/05/13 03:50:39;;;;;;;;;;;;;;;21.75;43.46;100046.19;5038029;28;780;-60
2021/05/13 03:53:05;;;;;;;;;;;;;;;21.85;43.18;100033.97;5039796;28;1902;-56
2021/05/13 03:55:30;;;;;;;;;;;;;;;21.79;43.40;100035.28;5040231;28;853;-63
2021/05/13 03:57:57;;;;;;;;;;;;;;;21.78;43.60;100045.53;5036855;28;1260;-58
2021/05/13 04:00:43;;;;;;;;;;;;;;;21.78;43.64;100040.00;5030913;28;808;-59
2021/05/13 04:03:08;;;;;;;;;;;;;;;21.82;43.54;100052.03;5005075;28;800;-52
2021/05/13 04:05:34;;;;;;;;;;;;;;;21.86;43.30;100054.97;5019413;28;844;-62
2021/05/13 04:07:59;;;;;;;;;;;;;;;21.81;43.41;100053.19;5019799;28;868;-59
2021/05/13 04:10:25;;;;;;;;;;;;;;;21.57;44.11;100055.63;5019731;28;776;-61
2021/05/13 04:12:53;;;;;;;;;;;;;;;21.72;43.74;100066.22;5016870;28;1910;-60
2021/05/13 04:15:19;;;;;;;;;;;;;;;21.63;43.94;100070.91;5039546;28;819;-58
2021/05/13 04:17:44;;;;;;;;;;;;;;;21.73;43.66;100067.84;5039486;28;768;-60
2021/05/13 04:20:10;;;;;;;;;;;;;;;21.95;43.47;100072.41;5038956;28;1268;-56
2021/05/13 04:22:35;;;;;;;;;;;;;;;21.95;43.43;100071.56;5039238;28;776;-62
2021/05/13 04:25:01;;;;;;;;;;;;;;;21.59;44.02;100075.47;5039133;28;872;-54
2021/05/13 04:27:27;;;;;;;;;;;;;;;21.48;44.35;100067.47;5038696;28;1018;-55
2021/05/13 04:29:52;;;;;;;;;;;;;;;21.25;44.92;100061.28;5039223;28;859;-59
2021/05/13 04:32:18;;;;;;;;;;;;;;;21.58;44.17;100055.31;5039120;28;764;-59
2021/05/13 04:34:43;;;;;;;;;;;;;;;21.70;43.88;100051.91;5038756;28;1917;-62
2021/05/13 04:37:08;;;;;;;;;;;;;;;21.97;43.13;100053.50;5039139;28;1148;-61
2021/05/13 04:39:34;;;;;;;;;;;;;;;22.15;42.92;100051.50;5038917;28;784;-62
2021/05/13 04:41:59;;;;;;;;;;;;;;;22.23;42.69;100055.38;5038185;28;955;-59
2021/05/13 04:44:25;;;;;;;;;;;;;;;22.41;42.19;100061.72;5039702;28;692;-60
2021/05/13 04:46:58;;;;;;;;;;;;;;;21.74;43.85;100066.72;5038530;28;486;-61
2021/05/13 04:49:24;;;;;;;;;;;;;;;21.59;44.14;100065.25;5038485;28;578;-59
2021/05/13 04:51:49;;;;;;;;;;;;;;;21.44;44.42;100074.78;5038730;28;764;-59
2021/05/13 04:54:15;;;;;;;;;;;;;;;21.51;44.43;100071.53;5020714;28;1994;-62
2021/05/13 04:56:41;;;;;;;;;;;;;;;21.95;43.31;100077.94;5038133;28;1006;-59
2021/05/13 04:59:06;;;;;;;;;;;;;;;22.00;43.02;100068.63;5038473;28;764;-60
2021/05/13 05:01:32;;;;;;;;;;;;;;;22.24;42.58;100067.28;5038174;28;748;-60
2021/05/13 05:03:57;;;;;;;;;;;;;;;22.16;42.65;100066.16;5038273;28;807;-59
2021/05/13 05:06:23;;;;;;;;;;;;;;;22.11;43.13;100069.91;5020402;28;853;-62
2021/05/13 05:08:48;;;;;;;;;;;;;;;22.37;42.31;100069.91;5038242;28;776;-62
2021/05/13 05:11:16;;;;;;;;;;;;;;;22.37;42.52;100071.84;5037885;28;998;-58
2021/05/13 05:13:41;;;;;;;;;;;;;;;22.30;42.52;100065.97;5038250;28;1975;-61
2021/05/13 05:16:07;;;;;;;;;;;;;;;21.91;43.31;100067.81;5038273;28;752;-60
2021/05/13 05:18:32;;;;;;;;;;;;;;;21.76;44.05;100071.91;5038291;28;788;-61
2021/05/13 05:20:57;;;;;;;;;;;;;;;21.29;44.70;100062.22;5037739;28;1174;-62
2021/05/13 05:23:23;;;;;;;;;;;;;;;21.72;43.89;100066.22;5038583;28;852;-61
2021/05/13 05:25:49;;;;;;;;;;;;;;;22.01;43.12;100064.72;5037782;28;817;-62
2021/05/13 05:28:14;;;;;;;;;;;;;;;22.00;43.09;100072.19;5037694;28;1014;-59
2021/05/13 05:30:40;;;;;;;;;;;;;;;22.10;43.00;100071.06;5038131;28;772;-60
2021/05/13 05:33:06;;;;;;;;;;;;;;;22.30;42.58;100071.50;5037584;28;1914;-54
2021/05/13 05:35:32;;;;;;;;;;;;;;;22.21;42.72;100068.75;5037897;28;784;-64
2021/05/13 05:37:58;;;;;;;;;;;;;;;22.45;42.12;100068.22;5037932;28;1167;-56
2021/05/13 05:40:23;;;;;;;;;;;;;;;22.47;41.94;100068.72;5020366;28;1370;-62
2021/05/13 05:42:49;;;;;;;;;;;;;;;21.94;43.43;100064.41;5037376;28;1011;-58
2021/05/13 05:45:15;;;;;;;;;;;;;;;21.60;44.14;100068.81;5037813;28;863;-59
2021/05/13 05:47:40;;;;;;;;;;;;;;;21.56;44.08;100078.91;5037378;28;796;-60
2021/05/13 05:50:06;;;;;;;;;;;;;;;21.55;44.32;100085.59;5037551;28;764;-64
2021/05/13 05:52:31;;;;;;;;;;;;;;;21.91;43.54;100087.19;5037465;28;1445;-59
2021/05/13 05:54:57;;;;;;;;;;;;;;;22.17;42.82;100073.31;5035888;28;1914;-60
2021/05/13 05:57:22;;;;;;;;;;;;;;;22.19;42.59;100077.41;5036463;28;1194;-65
2021/05/13 05:59:48;;;;;;;;;;;;;;;22.32;42.35;100077.53;5036273;28;764;-60
2021/05/13 06:02:13;;;;;;;;;;;;;;;21.78;43.72;100089.00;5036509;28;1171;-63
2021/05/13 06:04:38;;;;;;;;;;;;;;;21.69;44.18;100089.00;5037087;28;777;-60
2021/05/13 06:07:04;;;;;;;;;;;;;;;21.38;44.58;100098.22;5037633;28;819;-60
2021/05/13 06:09:29;;;;;;;;;;;;;;;21.50;44.60;100094.81;5036907;28;788;-59
2021/05/13 06:11:55;;;;;;;;;;;;;;;21.81;43.91;100100.25;5036240;28;963;-60
2021/05/13 06:14:20;;;;;;;;;;;;;;;22.06;43.10;100106.06;5036595;28;1969;-60
2021/05/13 06:16:46;;;;;;;;;;;;;;;22.11;42.89;100097.59;5036860;28;760;-61
2021/05/13 06:19:11;;;;;;;;;;;;;;;22.29;42.58;100097.59;5037017;28;779;-61
2021/05/13 06:21:38;;;;;;;;;;;;;;;22.26;42.53;100098.22;5035727;28;1663;-53
2021/05/13 06:24:08;;;;;;;;;;;;;;;21.75;43.88;100096.00;5019244;28;731;-56
2021/05/13 06:26:33;;;;;;;;;;;;;;;21.57;44.29;100106.22;5035333;28;1022;-55
2021/05/13 06:28:59;;;;;;;;;;;;;;;21.36;45.04;100097.72;5036375;28;915;-63
2021/05/13 06:31:24;;;;;;;;;;;;;;;21.75;43.98;100101.53;5035132;28;796;-60
2021/05/13 06:33:50;;;;;;;;;;;;;;;21.96;43.42;100100.88;5036428;28;1982;-60
2021/05/13 06:36:15;;;;;;;;;;;;;;;21.93;43.52;100096.00;5036632;28;1080;-61
2021/05/13 06:38:41;;;;;;;;;;;;;;;22.07;42.92;100096.63;5036142;28;824;-61
2021/05/13 06:41:09;;;;;;;;;;;;;;;22.23;42.94;100096.91;5036011;28;944;-54
2021/05/13 06:43:34;;;;;;;;;;;;;;;22.40;42.37;100098.91;5036326;28;776;-63
2021/05/13 06:46:00;;;;;;;;;;;;;;;22.37;42.36;100092.06;5035995;28;792;-60
2021/05/13 06:48:25;;;;;;;;;;;;;;;22.36;42.48;100097.94;5035344;28;1084;-61
2021/05/13 06:50:51;;;;;;;;;;;;;;;22.44;42.22;100085.19;5036803;28;748;-63
2021/05/13 06:53:16;;;;;;;;;;;;;;;21.71;44.09;100092.25;5015344;28;1910;-54
2021/05/13 06:55:42;;;;;;;;;;;;;;;21.62;44.15;100094.22;5032843;28;1141;-61
2021/05/13 06:58:08;;;;;;;;;;;;;;;21.45;44.70;100098.56;5034722;28;980;-56
2021/05/13 07:00:34;;;;;;;;;;;;;;;21.74;44.05;100093.56;5036176;28;768;-59
2021/05/13 07:02:59;;;;;;;;;;;;;;;22.11;42.93;100089.28;5035669;28;886;-47
2021/05/13 07:05:25;;;;;;;;;;;;;;;22.09;43.07;100088.81;5036462;28;761;-60
2021/05/13 07:07:50;;;;;;;;;;;;;;;22.11;43.20;100069.91;5036701;28;780;-59
2021/05/13 07:10:16;;;;;;;;;;;;;;;22.18;42.77;100081.31;5035820;28;768;-50
2021/05/13 07:12:42;;;;;;;;;;;;;;;22.25;42.71;100080.00;5035382;28;1002;-58
2021/05/13 07:15:08;;;;;;;;;;;;;;;22.35;42.72;100079.69;5035433;28;1976;-55
2021/05/13 07:17:33;;;;;;;;;;;;;;;22.31;42.72;100085.00;5035732;28;772;-51
2021/05/13 07:19:58;;;;;;;;;;;;;;;22.50;42.43;100087.44;5036221;28;946;-54
2021/05/13 07:22:24;;;;;;;;;;;;;;;21.84;43.61;100090.47;5036156;28;772;-57
2021/05/13 07:24:49;;;;;;;;;;;;;;;21.68;44.17;100092.91;5037044;28;752;-63
2021/05/13 07:27:15;;;;;;;;;;;;;;;21.27;44.69;100107.97;5040317;28;962;-60
2021/05/13 07:29:40;;;;;;;;;;;;;;;21.56;44.37;100114.84;5040232;28;883;-56
2021/05/13 07:32:06;;;;;;;;;;;;;;;21.88;43.67;100117.16;5039592;28;823;-59
2021/05/13 07:34:31;;;;;;;;;;;;;;;22.05;43.27;100115.53;5040137;28;1975;-59
2021/05/13 07:36:57;;;;;;;;;;;;;;;22.01;42.82;100115.38;5048929;28;1163;-57
2021/05/13 07:39:22;;;;;;;;;;;;;;;22.02;43.28;100108.69;5039363;28;792;-65
2021/05/13 07:41:48;;;;;;;;;;;;;;;22.27;42.99;100108.16;5039602;28;967;-49
2021/05/13 07:44:13;;;;;;;;;;;;;;;22.37;42.57;100094.00;5040190;28;790;-51
2021/05/13 07:46:40;;;;;;;;;;;;;;;22.43;42.51;100092.69;5039426;28;856;-61
2021/05/13 07:49:07;;;;;;;;;;;;;;;22.02;43.83;100091.25;5040341;28;784;-49
2021/05/13 07:51:32;;;;;;;;;;;;;;;21.60;44.82;100083.47;5039964;28;788;-49
2021/05/13 07:53:58;;;;;;;;;;;;;;;21.35;45.14;100087.81;5038319;28;1910;-58
2021/05/13 07:56:23;;;;;;;;;;;;;;;21.51;45.26;100097.25;5039266;28;1026;-47
2021/05/13 07:58:49;;;;;;;;;;;;;;;22.13;43.70;100077.91;5039787;28;791;-48
2021/05/13 08:01:14;;;;;;;;;;;;;;;22.21;43.60;100069.56;5021347;28;1013;-46
2021/05/13 08:03:40;;;;;;;;;;;;;;;22.14;43.89;100072.03;5039950;28;764;-46
2021/05/13 08:06:05;;;;;;;;;;;;;;;22.34;43.53;100075.28;5039478;28;756;-49
2021/05/13 08:08:31;;;;;;;;;;;;;;;22.50;43.07;100084.69;5039028;28;768;-54
2021/05/13 08:10:56;;;;;;;;;;;;;;;22.47;43.00;100093.66;5039165;28;878;-48
2021/05/13 08:13:22;;;;;;;;;;;;;;;22.49;42.80;100094.13;5038529;28;1972;-51
2021/05/13 08:15:47;;;;;;;;;;;;;;;21.90;44.43;100096.66;5038655;28;1217;-48
2021/05/13 08:18:12;;;;;;;;;;;;;;;21.74;44.61;100083.31;5039411;28;748;-56
2021/05/13 08:20:38;;;;;;;;;;;;;;;21.51;45.32;100088.94;5038602;28;1008;-60
2021/05/13 08:23:03;;;;;;;;;;;;;;;21.72;44.74;100080.03;5039273;28;828;-61
2021/05/13 08:25:29;;;;;;;;;;;;;;;21.99;44.08;100084.44;5038840;28;888;-48
2021/05/13 08:27:54;;;;;;;;;;;;;;;22.25;43.42;100080.81;5038869;28;998;-61
2021/05/13 08:30:20;;;;;;;;;;;;;;;22.33;43.17;100079.16;5038716;28;776;-47
2021/05/13 08:32:45;;;;;;;;;;;;;;;22.51;42.60;100077.16;5039128;28;835;-48
2021/05/13 08:35:11;;;;;;;;;;;;;;;22.46;42.98;100080.94;5020565;28;1910;-61
2021/05/13 08:37:36;;;;;;;;;;;;;;;22.56;42.60;100085.31;5038528;28;1186;-47
2021/05/13 08:40:03;;;;;;;;;;;;;;;22.44;42.95;100083.25;5039023;28;800;-48
2021/05/13 08:42:28;;;;;;;;;;;;;;;22.61;42.59;100084.31;5038369;28;1125;-60
2021/05/13 08:44:53;;;;;;;;;;;;;;;22.65;42.66;100082.50;5038255;28;756;-51
2021/05/13 08:47:19;;;;;;;;;;;;;;;22.19;43.38;100082.94;5021613;28;1213;-49
2021/05/13 08:49:44;;;;;;;;;;;;;;;21.92;44.17;100083.28;5038710;28;740;-48
2021/05/13 08:52:10;;;;;;;;;;;;;;;21.48;44.87;100075.78;5038642;28;765;-49
2021/05/13 08:54:36;;;;;;;;;;;;;;;21.81;44.47;100074.50;5038980;28;1975;-47
2021/05/13 08:57:01;;;;;;;;;;;;;;;22.16;43.40;100061.44;5037880;28;938;-46
2021/05/13 08:59:28;;;;;;;;;;;;;;;22.28;43.47;100060.75;5038215;28;740;-48
2021/05/13 09:01:54;;;;;;;;;;;;;;;22.49;42.76;100063.66;5038304;28;994;-46
2021/05/13 09:04:19;;;;;;;;;;;;;;;22.52;42.79;100068.53;5038461;28;775;-62
2021/05/13 09:06:46;;;;;;;;;;;;;;;22.62;42.37;100061.00;5037884;28;788;-52
2021/05/13 09:09:12;;;;;;;;;;;;;;;22.36;43.08;100061.91;5037135;28;789;-57
2021/05/13 09:11:50;;;;;;;;;;;;;;;22.01;44.09;100060.00;5038089;28;1029;-58
2021/05/13 09:14:28;;;;;;;;;;;;;;;21.94;43.90;100065.22;5037111;28;1910;-51
2021/05/13 09:16:54;;;;;;;;;;;;;;;21.49;45.27;100049.75;5038401;28;788;-48
2021/05/13 09:19:23;;;;;;;;;;;;;;;21.92;44.23;100061.16;5038329;28;883;-62
2021/05/13 09:21:59;;;;;;;;;;;;;;;22.22;43.66;100059.31;5037743;28;1025;-49
2021/05/13 09:24:43;;;;;;;;;;;;;;;22.39;42.95;100055.72;5038136;28;847;-50
2021/05/13 09:27:14;;;;;;;;;;;;;;;22.55;42.63;100056.81;5037767;28;963;-49
2021/05/13 09:29:40;;;;;;;;;;;;;;;22.61;42.67;100059.38;5037788;28;796;-49
2021/05/13 09:32:15;;;;;;;;;;;;;;;22.74;42.25;100055.56;5035237;28;859;-61
2021/05/13 09:34:40;;;;;;;;;;;;;;;22.17;43.47;100057.50;5037955;28;1917;-62
2021/05/13 09:37:06;;;;;;;;;;;;;;;21.99;43.82;100056.75;5037372;28;1139;-62
2021/05/13 09:39:32;;;;;;;;;;;;;;;21.74;44.31;100054.81;5017078;28;979;-52
2021/05/13 09:41:58;;;;;;;;;;;;;;;21.72;44.71;100060.69;5032485;28;971;-57
2021/05/13 09:44:34;;;;;;;;;;;;;;;22.02;43.92;100049.72;5035256;28;1203;-60
2021/05/13 09:47:21;;;;;;;;;;;;;;;22.25;43.52;100055.09;5035470;28;1025;-48
2021/05/13 09:50:01;;;;;;;;;;;;;;;22.37;43.29;100058.81;5034183;28;1167;-47
2021/05/13 09:52:37;;;;;;;;;;;;;;;22.60;42.65;100057.78;5030893;28;1084;-52
2021/05/13 09:55:12;;;;;;;;;;;;;;;22.39;42.80;100059.28;5034902;28;1999;-47
2021/05/13 09:57:38;;;;;;;;;;;;;;;21.89;44.19;100051.53;5034605;28;959;-45
2021/05/13 10:00:07;;;;;;;;;;;;;;;21.81;44.20;100044.06;5034315;28;892;-48
2021/05/13 10:02:36;;;;;;;;;;;;;;;21.59;45.15;100059.72;5037555;28;696;-60
2021/05/13 10:05:02;;;;;;;;;;;;;;;21.93;44.22;100057.25;5036028;28;938;-48
2021/05/13 10:07:29;;;;;;;;;;;;;;;22.17;43.47;100063.06;5036325;28;847;-53
2021/05/13 10:09:57;;;;;;;;;;;;;;;22.33;43.30;100062.53;5031899;28;956;-52
2021/05/13 10:12:24;;;;;;;;;;;;;;;22.52;42.76;100059.41;5034852;28;968;-46
2021/05/13 10:14:51;;;;;;;;;;;;;;;22.52;42.91;100049.13;5034457;28;1918;-48
2021/05/13 10:17:17;;;;;;;;;;;;;;;22.59;42.58;100056.13;5034338;28;939;-62
2021/05/13 10:19:44;;;;;;;;;;;;;;;22.10;43.69;100051.66;5035115;28;932;-51
2021/05/13 10:22:12;;;;;;;;;;;;;;;21.64;44.73;100055.94;5033050;28;1218;-48
2021/05/13 10:24:38;;;;;;;;;;;;;;;21.50;44.93;100067.97;5034192;28;888;-47
2021/05/13 10:27:17;;;;;;;;;;;;;;;21.76;44.78;100058.88;5033845;28;962;-51
2021/05/13 10:29:43;;;;;;;;;;;;;;;22.01;44.17;100048.13;5035832;28;824;-52
2021/05/13 10:34:40;;;;;;;;;;;;;;;22.26;43.34;100051.16;5036383;28;1980;-52
2021/05/13 10:37:12;;;;;;;;;;;;;;;22.42;43.13;100045.94;5036069;28;1088;-50
2021/05/13 10:39:56;;;;;;;;;;;;;;;22.45;42.86;100036.94;5035648;28;889;-52
2021/05/13 10:42:28;;;;;;;;;;;;;;;22.30;43.49;100043.81;5035260;28;1142;-50
2021/05/13 10:44:53;;;;;;;;;;;;;;;22.42;43.10;100038.44;5027508;28;856;-56
2021/05/13 10:47:25;;;;;;;;;;;;;;;22.46;43.00;100044.94;5035926;28;865;-48
2021/05/13 10:49:51;;;;;;;;;;;;;;;22.23;43.56;100038.75;5035099;28;935;-52
2021/05/13 10:52:28;;;;;;;;;;;;;;;21.95;44.06;100046.66;5018070;28;1102;-47
2021/05/13 10:54:54;;;;;;;;;;;;;;;21.70;44.70;100040.84;5034683;28;1914;-54
2021/05/13 10:57:20;;;;;;;;;;;;;;;21.72;45.00;100044.06;5034706;28;930;-45
2021/05/13 11:00:04;;;;;;;;;;;;;;;21.99;44.21;100044.84;5034724;28;876;-51
2021/05/13 11:02:42;;;;;;;;;;;;;;;22.21;43.75;100044.63;5036299;28;748;-50
2021/05/13 11:05:26;;;;;;;;;;;;;;;22.08;43.86;100037.34;5034523;28;893;-45
2021/05/13 11:07:51;;;;;;;;;;;;;;;21.86;44.39;100041.94;5027728;28;884;-49
2021/05/13 11:10:17;;;;;;;;;;;;;;;21.80;44.41;100043.25;5033512;28;885;-47
2021/05/13 11:12:42;;;;;;;;;;;;;;;21.53;45.18;100048.00;5038722;28;975;-52
2021/05/13 11:15:14;;;;;;;;;;;;;;;21.64;44.90;100048.50;5033978;28;1987;-55
2021/05/13 11:17:40;;;;;;;;;;;;;;;21.75;44.71;100042.63;5017689;28;1139;-51
2021/05/13 11:20:18;;;;;;;;;;;;;;;21.78;44.67;100040.00;5034647;28;1208;-58
2021/05/13 11:23:04;;;;;;;;;;;;;;;21.85;44.52;100045.88;5035144;28;965;-46
2021/05/13 11:25:35;;;;;;;;;;;;;;;21.83;44.40;100034.28;5034664;28;1253;-45
2021/05/13 11:28:15;;;;;;;;;;;;;;;21.85;44.42;100029.25;5035359;28;940;-46
2021/05/13 11:30:40;;;;;;;;;;;;;;;21.97;44.38;100036.09;5027507;28;928;-50
2021/05/13 11:33:08;;;;;;;;;;;;;;;22.11;43.85;100030.34;5032795;28;1910;-63
2021/05/13 11:35:33;;;;;;;;;;;;;;;22.06;44.08;100031.31;5034954;28;932;-62
2021/05/13 11:38:00;;;;;;;;;;;;;;;22.19;43.60;100038.63;5034757;28;1259;-63
2021/05/13 11:40:28;;;;;;;;;;;;;;;22.16;43.77;100033.75;5034813;28;920;-64
2021/05/13 11:43:14;;;;;;;;;;;;;;;22.33;43.47;100043.13;5032672;28;932;-52
2021/05/13 11:45:39;;;;;;;;;;;;;;;22.46;43.04;100039.38;5033622;28;1042;-47
2021/05/13 11:48:18;;;;;;;;;;;;;;;22.05;44.00;100029.72;5035788;28;1247;-57
2021/05/13 11:50:43;;;;;;;;;;;;;;;21.72;44.87;100018.38;5034257;28;1049;-50
2021/05/13 11:53:10;;;;;;;;;;;;;;;21.76;44.67;100022.91;5034730;28;1902;-59
2021/05/13 11:55:35;;;;;;;;;;;;;;;21.70;44.65;100010.41;5035190;28;888;-62
2021/05/13 11:58:01;;;;;;;;;;;;;;;21.78;44.74;100012.31;5034124;28;825;-52
2021/05/13 12:00:26;;;;;;;;;;;;;;;21.73;44.63;100008.91;5034976;28;837;-58
2021/05/13 12:03:07;;;;;;;;;;;;;;;21.96;44.04;100006.75;5035272;28;1050;-61
2021/05/13 12:05:43;;;;;;;;;;;;;;;22.02;44.22;100009.03;5033958;28;975;-57
2021/05/13 12:08:09;;;;;;;;;;;;;;;22.09;44.00;100011.31;5033153;28;885;-57
2021/05/13 12:10:34;;;;;;;;;;;;;;;22.25;43.36;100010.78;5036120;28;900;-57
2021/05/13 12:13:03;;;;;;;;;;;;;;;22.36;43.25;100014.84;5037473;28;825;-56
2021/05/13 12:15:28;;;;;;;;;;;;;;;22.21;43.47;100014.19;5037032;28;1914;-58
2021/05/13 12:17:54;;;;;;;;;;;;;;;22.39;43.15;100008.63;5038213;28;1063;-60
2021/05/13 12:20:19;;;;;;;;;;;;;;;22.32;43.46;99998.03;5035529;28;1175;-56
2021/05/13 12:22:45;;;;;;;;;;;;;;;22.19;43.54;100010.94;5037369;28;896;-55
2021/05/13 12:25:11;;;;;;;;;;;;;;;21.99;44.20;100006.09;5036977;28;837;-60
2021/05/13 12:27:37;;;;;;;;;;;;;;;21.69;44.87;100008.75;5026761;28;1123;-62
2021/05/13 12:30:03;;;;;;;;;;;;;;;21.73;44.75;100009.75;5019165;28;1093;-48
2021/05/13 12:32:33;;;;;;;;;;;;;;;21.75;44.50;99996.38;5036986;28;884;-52
2021/05/13 12:34:59;;;;;;;;;;;;;;;21.58;45.12;100001.94;5020358;28;1981;-47
2021/05/13 12:37:25;;;;;;;;;;;;;;;21.68;44.69;99996.88;5038189;28;1124;-50
2021/05/13 12:39:50;;;;;;;;;;;;;;;21.73;44.50;100004.19;5037978;28;837;-49
2021/05/13 12:42:26;;;;;;;;;;;;;;;21.95;43.99;99994.88;5037435;28;833;-50
2021/05/13 12:44:55;;;;;;;;;;;;;;;21.96;44.20;99992.94;5020347;28;851;-54
2021/05/13 12:47:26;;;;;;;;;;;;;;;22.04;43.70;99981.03;5036583;28;1367;-51
2021/05/13 12:49:59;;;;;;;;;;;;;;;22.26;43.39;99981.91;5038017;28;844;-49
2021/05/13 12:52:27;;;;;;;;;;;;;;;22.25;43.34;99975.56;5037996;28;829;-50
2021/05/13 12:55:01;;;;;;;;;;;;;;;22.39;43.11;99970.66;5037213;28;1909;-51